createdAt,value
2023-05-14T00:02:09.428Z,13.40
2023-05-14T00:04:36.563Z,13.40
2023-05-14T00:07:03.584Z,13.40
2023-05-14T00:09:30.708Z,13.30
2023-05-14T00:11:57.740Z,13.20
2023-05-14T00:14:24.692Z,13.20
2023-05-14T00:16:51.628Z,13.10
2023-05-14T00:19:19.077Z,13.00
2023-05-14T00:21:47.845Z,13.00
2023-05-14T00:24:15.023Z,12.90
2023-05-14T00:29:09.823Z,12.90
2023-05-14T00:31:37.323Z,13.20
2023-05-14T00:34:04.546Z,12.90
2023-05-14T00:36:31.684Z,12.90
2023-05-14T00:38:58.714Z,12.90
2023-05-14T00:41:26.005Z,12.90
2023-05-14T00:43:52.803Z,13.00
2023-05-14T00:46:20.410Z,13.00
2023-05-14T00:48:48.505Z,12.90
2023-05-14T00:51:16.589Z,13.00
2023-05-14T00:53:43.543Z,13.00
2023-05-14T00:56:10.952Z,12.90
2023-05-14T00:58:37.888Z,13.00
2023-05-14T01:01:05.078Z,12.90
2023-05-14T01:03:32.455Z,12.90
2023-05-14T01:06:14.137Z,12.90
2023-05-14T01:08:56.699Z,12.90
2023-05-14T01:11:29.483Z,12.90
2023-05-14T01:14:02.205Z,12.80
2023-05-14T01:16:31.249Z,12.80
2023-05-14T01:18:59.971Z,12.80
2023-05-14T01:21:37.335Z,12.80
2023-05-14T01:24:04.673Z,12.80
2023-05-14T01:26:31.759Z,12.80
2023-05-14T01:29:15.328Z,12.80
2023-05-14T01:31:45.742Z,12.80
2023-05-14T01:34:15.808Z,12.70
2023-05-14T01:36:43.724Z,12.70
2023-05-14T01:39:12.053Z,12.60
2023-05-14T01:41:42.254Z,12.60
2023-05-14T01:44:09.805Z,12.60
2023-05-14T01:46:36.897Z,12.60
2023-05-14T01:49:04.287Z,12.60
2023-05-14T01:51:31.186Z,12.60
2023-05-14T01:53:58.053Z,12.60
2023-05-14T01:56:25.891Z,12.50
2023-05-14T01:58:53.001Z,12.50
2023-05-14T02:01:19.892Z,12.50
2023-05-14T02:03:47.874Z,12.50
2023-05-14T02:06:14.870Z,12.50
2023-05-14T02:08:41.664Z,12.50
2023-05-14T02:11:09.078Z,12.50
2023-05-14T02:13:36.374Z,12.50
2023-05-14T02:16:03.535Z,12.50
2023-05-14T02:18:30.583Z,12.50
2023-05-14T02:20:57.902Z,12.40
2023-05-14T02:23:34.058Z,12.40
2023-05-14T02:26:05.016Z,12.30
2023-05-14T02:28:31.897Z,12.50
2023-05-14T02:31:00.544Z,12.30
2023-05-14T02:33:27.957Z,12.20
2023-05-14T02:35:54.878Z,12.20
2023-05-14T02:38:22.462Z,12.10
2023-05-14T02:40:49.359Z,12.70
2023-05-14T02:43:16.372Z,12.10
2023-05-14T02:45:43.217Z,12.10
2023-05-14T02:48:10.085Z,12.10
2023-05-14T02:50:36.919Z,12.10
2023-05-14T02:53:03.832Z,12.10
2023-05-14T02:55:31.126Z,12.10
2023-05-14T02:57:57.951Z,12.10
2023-05-14T03:00:24.990Z,12.10
2023-05-14T03:02:52.584Z,12.10
2023-05-14T03:05:20.145Z,12.00
2023-05-14T03:07:47.018Z,12.00
2023-05-14T03:10:13.850Z,12.00
2023-05-14T03:12:40.765Z,12.00
2023-05-14T03:15:08.722Z,12.00
2023-05-14T03:17:35.735Z,12.00
2023-05-14T03:20:03.384Z,12.00
2023-05-14T03:22:30.398Z,12.00
2023-05-14T03:24:57.232Z,11.90
2023-05-14T03:27:24.133Z,12.00
2023-05-14T03:29:50.973Z,12.00
2023-05-14T03:32:18.819Z,12.10
2023-05-14T03:34:45.789Z,12.10
2023-05-14T03:37:12.739Z,12.10
2023-05-14T03:39:39.646Z,12.10
2023-05-14T03:42:06.631Z,12.10
2023-05-14T03:44:33.578Z,12.10
2023-05-14T03:47:00.502Z,12.10
2023-05-14T03:49:27.934Z,12.10
2023-05-14T03:51:59.292Z,12.00
2023-05-14T03:54:26.760Z,12.00
2023-05-14T03:56:53.594Z,12.00
2023-05-14T03:59:20.395Z,12.00
2023-05-14T04:01:47.314Z,12.00
2023-05-14T04:04:14.245Z,11.90
2023-05-14T04:06:41.115Z,12.00
2023-05-14T04:09:07.964Z,12.00
2023-05-14T04:11:35.221Z,11.90
2023-05-14T04:14:02.368Z,12.00
2023-05-14T04:16:29.962Z,12.00
2023-05-14T04:18:56.812Z,12.00
2023-05-14T04:21:24.101Z,12.00
2023-05-14T04:23:51.641Z,12.00
2023-05-14T04:26:18.517Z,12.10
2023-05-14T04:28:45.717Z,12.20
2023-05-14T04:31:12.684Z,12.10
2023-05-14T04:33:39.914Z,12.10
2023-05-14T04:36:07.271Z,12.10
2023-05-14T04:38:34.400Z,12.10
2023-05-14T04:41:01.227Z,12.20
2023-05-14T04:43:28.097Z,12.20
2023-05-14T04:45:54.880Z,12.20
2023-05-14T04:48:21.686Z,12.30
2023-05-14T04:50:48.603Z,12.30
2023-05-14T04:53:15.408Z,12.30
2023-05-14T04:55:42.289Z,12.30
2023-05-14T04:58:09.138Z,12.40
2023-05-14T05:00:35.961Z,12.30
2023-05-14T05:03:03.370Z,12.30
2023-05-14T05:05:30.357Z,12.40
2023-05-14T05:07:57.190Z,12.40
2023-05-14T05:10:24.247Z,12.30
2023-05-14T05:12:51.502Z,12.30
2023-05-14T05:15:18.377Z,12.40
2023-05-14T05:17:45.261Z,12.40
2023-05-14T05:20:12.750Z,12.40
2023-05-14T05:22:39.734Z,12.40
2023-05-14T05:25:08.079Z,12.40
2023-05-14T05:27:35.101Z,12.40
2023-05-14T05:30:02.399Z,12.40
2023-05-14T05:32:29.627Z,12.40
2023-05-14T05:34:57.045Z,12.50
2023-05-14T05:37:24.084Z,12.50
2023-05-14T05:39:51.404Z,12.50
2023-05-14T05:42:18.264Z,12.60
2023-05-14T05:44:45.372Z,12.50
2023-05-14T05:47:12.735Z,12.60
2023-05-14T05:49:39.664Z,12.60
2023-05-14T05:52:06.695Z,12.60
2023-05-14T05:54:33.568Z,12.70
2023-05-14T05:57:01.788Z,12.70
2023-05-14T05:59:28.940Z,12.70
2023-05-14T06:01:56.291Z,12.70
2023-05-14T06:04:23.198Z,12.70
2023-05-14T06:06:50.362Z,12.80
2023-05-14T06:09:17.287Z,12.80
2023-05-14T06:11:44.461Z,12.80
2023-05-14T06:14:12.088Z,12.80
2023-05-14T06:16:38.980Z,12.90
2023-05-14T06:19:06.434Z,12.90
2023-05-14T06:21:33.732Z,13.00
2023-05-14T06:24:00.946Z,13.00
2023-05-14T06:26:28.043Z,13.00
2023-05-14T06:28:55.131Z,13.10
2023-05-14T06:31:22.791Z,13.10
2023-05-14T06:33:49.738Z,13.10
2023-05-14T06:36:16.632Z,13.10
2023-05-14T06:38:43.558Z,13.20
2023-05-14T06:41:10.882Z,13.20
2023-05-14T06:43:37.793Z,13.20
2023-05-14T06:46:04.748Z,13.20
2023-05-14T06:50:58.968Z,13.20
2023-05-14T06:53:25.807Z,13.30
2023-05-14T06:55:52.708Z,13.30
2023-05-14T06:58:19.593Z,13.40
2023-05-14T07:00:46.420Z,13.40
2023-05-14T07:03:13.345Z,13.50
2023-05-14T07:05:41.227Z,13.50
2023-05-14T07:08:08.188Z,13.50
2023-05-14T07:10:35.199Z,13.50
2023-05-14T07:13:03.289Z,13.50
2023-05-14T07:15:30.289Z,13.60
2023-05-14T07:17:57.281Z,13.60
2023-05-14T07:20:24.524Z,13.60
2023-05-14T07:22:52.759Z,13.70
2023-05-14T07:25:19.610Z,13.80
2023-05-14T07:27:46.488Z,13.80
2023-05-14T07:30:13.641Z,13.80
2023-05-14T07:32:40.864Z,13.80
2023-05-14T07:35:08.579Z,13.90
2023-05-14T07:37:36.036Z,13.90
2023-05-14T07:40:03.141Z,14.00
2023-05-14T07:42:36.787Z,14.00
2023-05-14T07:45:06.215Z,14.00
2023-05-14T07:47:33.300Z,14.00
2023-05-14T07:50:00.308Z,14.10
2023-05-14T07:52:27.214Z,14.10
2023-05-14T07:54:54.146Z,14.10
2023-05-14T07:57:22.054Z,14.10
2023-05-14T07:59:48.950Z,14.20
2023-05-14T08:02:18.896Z,14.20
2023-05-14T08:04:45.863Z,14.30
2023-05-14T08:07:12.726Z,14.30
2023-05-14T08:09:39.893Z,14.30
2023-05-14T08:12:07.487Z,14.40
2023-05-14T08:14:34.510Z,14.40
2023-05-14T08:17:01.371Z,14.50
2023-05-14T08:19:28.441Z,14.50
2023-05-14T08:21:55.290Z,14.60
2023-05-14T08:24:22.156Z,14.60
2023-05-14T08:26:49.021Z,14.70
2023-05-14T08:29:16.669Z,14.70
2023-05-14T08:31:44.195Z,14.80
2023-05-14T08:34:11.130Z,14.80
2023-05-14T08:36:38.969Z,14.90
2023-05-14T08:39:07.704Z,14.90
2023-05-14T08:41:35.641Z,14.90
2023-05-14T08:44:13.669Z,15.00
2023-05-14T08:46:41.483Z,15.10
2023-05-14T08:49:16.760Z,15.10
2023-05-14T08:51:48.409Z,15.10
2023-05-14T08:54:19.020Z,15.20
2023-05-14T08:56:46.522Z,14.30
2023-05-14T08:59:13.604Z,15.30
2023-05-14T09:01:46.223Z,15.30
2023-05-14T09:04:15.587Z,15.30
2023-05-14T09:06:43.455Z,15.40
2023-05-14T09:09:11.365Z,15.40
2023-05-14T09:11:42.831Z,15.40
2023-05-14T09:14:10.635Z,15.40
2023-05-14T09:16:38.221Z,15.40
2023-05-14T09:19:06.912Z,15.40
2023-05-14T09:21:34.884Z,15.40
2023-05-14T09:24:01.670Z,15.50
2023-05-14T09:26:32.652Z,15.50
2023-05-14T09:29:02.016Z,15.50
2023-05-14T09:31:33.670Z,14.70
2023-05-14T09:34:00.927Z,15.50
2023-05-14T09:36:27.741Z,15.50
2023-05-14T09:38:57.959Z,15.60
2023-05-14T09:41:25.016Z,15.60
2023-05-14T09:43:52.446Z,15.60
2023-05-14T09:46:19.311Z,15.60
2023-05-14T09:48:46.569Z,15.60
2023-05-14T09:51:14.085Z,15.70
2023-05-14T09:53:43.337Z,15.70
2023-05-14T09:56:10.447Z,16.00
2023-05-14T09:58:37.291Z,15.80
2023-05-14T10:01:06.028Z,15.70
2023-05-14T10:03:33.055Z,15.80
2023-05-14T10:06:05.744Z,15.80
2023-05-14T10:08:41.208Z,15.80
2023-05-14T10:11:14.016Z,15.80
2023-05-14T10:13:45.310Z,15.80
2023-05-14T10:16:29.098Z,15.80
2023-05-14T10:19:05.963Z,15.80
2023-05-14T10:21:36.693Z,15.80
2023-05-14T10:24:05.129Z,15.80
2023-05-14T10:26:39.151Z,15.90
2023-05-14T10:29:07.077Z,16.00
2023-05-14T10:31:47.936Z,16.00
2023-05-14T10:34:46.282Z,16.00
2023-05-14T10:37:14.914Z,16.00
2023-05-14T10:39:46.910Z,16.00
2023-05-14T10:42:18.462Z,16.10
2023-05-14T10:44:56.775Z,16.10
2023-05-14T10:47:24.106Z,16.10
2023-05-14T10:49:54.776Z,16.20
2023-05-14T10:52:22.519Z,16.20
2023-05-14T10:54:57.398Z,16.10
2023-05-14T10:57:35.876Z,16.10
2023-05-14T11:00:03.215Z,16.20
2023-05-14T11:02:40.795Z,16.20
2023-05-14T11:05:09.316Z,16.20
2023-05-14T11:07:41.291Z,16.30
2023-05-14T11:10:13.176Z,16.30
2023-05-14T11:12:45.003Z,16.30
2023-05-14T11:15:16.780Z,16.40
2023-05-14T11:17:45.084Z,16.40
2023-05-14T11:20:12.791Z,16.40
2023-05-14T11:22:41.370Z,16.50
2023-05-14T11:25:09.546Z,16.60
2023-05-14T11:27:39.126Z,16.60
2023-05-14T11:30:16.255Z,16.60
2023-05-14T11:32:45.969Z,16.60
2023-05-14T11:35:13.489Z,16.70
2023-05-14T11:37:40.780Z,16.70
2023-05-14T11:40:10.325Z,16.80
2023-05-14T11:42:37.630Z,16.90
2023-05-14T11:45:05.256Z,16.90
2023-05-14T11:47:32.205Z,17.00
2023-05-14T11:50:00.648Z,17.20
2023-05-14T11:52:27.636Z,17.20
2023-05-14T11:54:54.543Z,17.20
2023-05-14T11:57:22.393Z,17.30
2023-05-14T11:59:54.815Z,17.30
2023-05-14T12:02:22.867Z,17.50
2023-05-14T12:04:52.184Z,17.60
2023-05-14T12:07:19.483Z,17.60
2023-05-14T12:09:49.759Z,17.70
2023-05-14T12:12:21.699Z,17.60
2023-05-14T12:14:49.882Z,17.70
2023-05-14T12:17:21.760Z,17.50
2023-05-14T12:19:52.437Z,17.50
2023-05-14T12:22:22.249Z,17.60
2023-05-14T12:24:56.896Z,17.60
2023-05-14T12:27:28.799Z,17.50
2023-05-14T12:30:27.361Z,17.40
2023-05-14T12:32:52.916Z,17.40
2023-05-14T12:35:21.559Z,17.30
2023-05-14T12:37:48.481Z,17.20
2023-05-14T12:40:15.358Z,17.10
2023-05-14T12:42:42.203Z,17.10
2023-05-14T12:45:09.348Z,17.00
2023-05-14T12:47:37.211Z,17.00
2023-05-14T12:50:05.058Z,17.00
2023-05-14T12:55:01.762Z,16.60
2023-05-14T12:57:29.818Z,16.30
2023-05-14T12:59:57.506Z,16.00
2023-05-14T13:02:24.346Z,15.90
2023-05-14T13:04:51.228Z,15.70
2023-05-14T13:07:18.473Z,15.60
2023-05-14T13:09:45.339Z,15.60
2023-05-14T13:12:12.218Z,15.50
2023-05-14T13:14:39.174Z,15.50
2023-05-14T13:17:08.280Z,15.40
2023-05-14T13:19:35.665Z,15.40
2023-05-14T13:22:02.792Z,15.40
2023-05-14T13:24:29.696Z,15.40
2023-05-14T13:26:56.677Z,15.40
2023-05-14T13:29:24.620Z,15.40
2023-05-14T13:31:51.457Z,15.40
2023-05-14T13:34:18.576Z,15.40
2023-05-14T13:36:46.951Z,15.40
2023-05-14T13:39:14.567Z,15.50
2023-05-14T13:41:41.851Z,15.50
2023-05-14T13:44:08.817Z,15.50
2023-05-14T13:46:35.931Z,15.60
2023-05-14T13:49:02.844Z,15.60
2023-05-14T13:51:29.709Z,15.60
2023-05-14T13:53:56.789Z,15.60
2023-05-14T13:56:23.814Z,15.60
2023-05-14T13:58:50.786Z,15.50
2023-05-14T14:01:17.864Z,15.70
2023-05-14T14:03:44.809Z,15.70
2023-05-14T14:06:12.152Z,15.70
2023-05-14T14:08:39.189Z,15.60
2023-05-14T14:11:06.175Z,15.70
2023-05-14T14:13:33.100Z,15.80
2023-05-14T14:16:00.052Z,15.80
2023-05-14T14:18:27.256Z,15.80
2023-05-14T14:20:54.144Z,15.80
2023-05-14T14:23:21.321Z,15.80
2023-05-14T14:25:48.312Z,15.80
2023-05-14T14:28:15.266Z,15.90
2023-05-14T14:30:43.830Z,15.90
2023-05-14T14:33:11.576Z,15.90
2023-05-14T14:35:38.953Z,15.90
2023-05-14T14:38:06.316Z,15.90
2023-05-14T14:40:34.501Z,16.00
2023-05-14T14:43:02.272Z,16.00
2023-05-14T14:45:29.210Z,16.00
2023-05-14T14:48:33.953Z,16.00
2023-05-14T14:51:01.577Z,16.00
2023-05-14T14:53:28.517Z,16.00
2023-05-14T14:55:56.046Z,16.00
2023-05-14T14:58:23.874Z,16.00
2023-05-14T15:00:54.383Z,16.00
2023-05-14T15:03:21.821Z,16.00
2023-05-14T15:05:49.237Z,16.10
2023-05-14T15:08:16.078Z,16.00
2023-05-14T15:10:44.274Z,16.10
2023-05-14T15:13:13.156Z,16.10
2023-05-14T15:15:40.017Z,16.10
2023-05-14T15:18:06.972Z,16.10
2023-05-14T15:20:34.012Z,16.10
2023-05-14T15:23:00.938Z,16.10
2023-05-14T15:25:27.858Z,16.10
2023-05-14T15:27:54.722Z,16.10
2023-05-14T15:30:21.676Z,16.10
2023-05-14T15:32:48.645Z,16.10
2023-05-14T15:35:17.027Z,16.20
2023-05-14T15:37:44.781Z,16.20
2023-05-14T15:40:12.517Z,16.20
2023-05-14T15:42:43.960Z,16.20
2023-05-14T15:45:12.603Z,16.20
2023-05-14T15:47:40.320Z,16.20
2023-05-14T15:50:08.526Z,16.20
2023-05-14T15:52:36.498Z,16.30
2023-05-14T15:55:06.057Z,16.20
2023-05-14T15:57:33.316Z,16.30
2023-05-14T16:00:00.155Z,16.30
2023-05-14T16:02:31.378Z,16.30
2023-05-14T16:04:59.274Z,16.30
2023-05-14T16:07:26.276Z,16.30
2023-05-14T16:09:53.237Z,16.30
2023-05-14T16:12:20.040Z,16.30
2023-05-14T16:14:47.107Z,16.30
2023-05-14T16:17:14.143Z,16.30
2023-05-14T16:19:41.302Z,16.30
2023-05-14T16:22:08.244Z,16.40
2023-05-14T16:24:35.217Z,16.30
2023-05-14T16:27:02.142Z,16.40
2023-05-14T16:29:29.009Z,16.40
2023-05-14T16:31:56.036Z,16.40
2023-05-14T16:34:23.026Z,16.40
2023-05-14T16:36:49.866Z,16.40
2023-05-14T16:39:17.383Z,16.40
2023-05-14T16:41:44.246Z,16.40
2023-05-14T16:44:11.103Z,16.40
2023-05-14T16:46:38.092Z,16.40
2023-05-14T16:49:05.018Z,16.30
2023-05-14T16:51:31.840Z,16.10
2023-05-14T16:53:58.717Z,16.00
2023-05-14T16:56:26.534Z,15.80
2023-05-14T16:58:53.426Z,15.60
2023-05-14T17:01:20.298Z,15.40
2023-05-14T17:03:47.122Z,15.30
2023-05-14T17:06:14.003Z,15.10
2023-05-14T17:08:40.932Z,15.00
2023-05-14T17:11:07.794Z,14.80
2023-05-14T17:13:34.720Z,14.80
2023-05-14T17:16:01.839Z,14.70
2023-05-14T17:18:29.200Z,14.60
2023-05-14T17:20:56.626Z,14.60
2023-05-14T17:23:24.139Z,14.50
2023-05-14T17:25:51.143Z,14.50
2023-05-14T17:28:18.062Z,14.50
2023-05-14T17:30:45.022Z,14.50
2023-05-14T17:33:12.014Z,14.50
2023-05-14T17:35:39.050Z,15.00
2023-05-14T17:38:06.242Z,14.50
2023-05-14T17:40:33.494Z,14.50
2023-05-14T17:43:00.669Z,14.50
2023-05-14T17:45:29.505Z,14.50
2023-05-14T17:47:59.130Z,14.60
2023-05-14T17:50:26.171Z,14.60
2023-05-14T17:52:53.365Z,14.60
2023-05-14T17:55:20.956Z,14.60
2023-05-14T17:57:47.940Z,14.70
2023-05-14T18:00:15.038Z,14.70
2023-05-14T18:02:42.037Z,14.70
2023-05-14T18:05:09.307Z,14.70
2023-05-14T18:07:37.083Z,14.80
2023-05-14T18:10:04.518Z,14.80
2023-05-14T18:12:31.486Z,14.80
2023-05-14T18:14:58.429Z,14.80
2023-05-14T18:17:25.607Z,14.80
2023-05-14T18:19:52.559Z,14.70
2023-05-14T18:22:21.658Z,14.70
2023-05-14T18:24:48.674Z,14.70
2023-05-14T18:27:16.038Z,14.80
2023-05-14T18:29:43.504Z,14.80
2023-05-14T18:32:10.446Z,14.70
2023-05-14T18:34:37.301Z,14.70
2023-05-14T18:37:04.301Z,14.70
2023-05-14T18:39:31.254Z,14.80
2023-05-14T18:41:58.368Z,14.80
2023-05-14T18:44:25.315Z,14.70
2023-05-14T18:46:53.314Z,14.80
2023-05-14T18:49:20.384Z,14.70
2023-05-14T18:51:47.800Z,14.70
2023-05-14T18:54:15.405Z,14.70
2023-05-14T18:56:46.134Z,14.70
2023-05-14T18:59:15.182Z,14.70
2023-05-14T19:01:42.993Z,14.60
2023-05-14T19:04:10.630Z,14.60
2023-05-14T19:06:40.195Z,14.60
2023-05-14T19:09:07.975Z,14.50
2023-05-14T19:11:34.934Z,14.50
2023-05-14T19:14:02.311Z,14.50
2023-05-14T19:16:29.322Z,14.50
2023-05-14T19:18:56.963Z,14.40
2023-05-14T19:21:23.842Z,14.40
2023-05-14T19:23:51.665Z,14.40
2023-05-14T19:26:19.341Z,14.40
2023-05-14T19:28:46.880Z,14.30
2023-05-14T19:31:13.711Z,14.40
2023-05-14T19:33:40.638Z,14.30
2023-05-14T19:36:07.816Z,14.30
2023-05-14T19:38:34.806Z,14.20
2023-05-14T19:41:02.137Z,14.30
2023-05-14T19:43:28.990Z,14.30
2023-05-14T19:45:55.835Z,14.30
2023-05-14T19:48:22.651Z,14.30
2023-05-14T19:50:49.455Z,14.30
2023-05-14T19:53:16.532Z,14.30
2023-05-14T19:55:43.483Z,14.20
2023-05-14T19:58:10.447Z,14.20
2023-05-14T20:00:37.710Z,14.20
2023-05-14T20:03:05.858Z,14.20
2023-05-14T20:05:34.364Z,14.20
2023-05-14T20:08:01.242Z,14.20
2023-05-14T20:10:28.482Z,14.20
2023-05-14T20:12:55.721Z,14.20
2023-05-14T20:15:22.565Z,14.10
2023-05-14T20:17:49.989Z,14.10
2023-05-14T20:20:18.008Z,14.10
2023-05-14T20:22:45.560Z,14.00
2023-05-14T20:25:12.932Z,14.00
2023-05-14T20:27:41.189Z,13.90
2023-05-14T20:30:08.810Z,13.90
2023-05-14T20:32:36.233Z,13.90
2023-05-14T20:35:03.959Z,13.90
2023-05-14T20:37:34.999Z,13.90
2023-05-14T20:40:02.416Z,13.80
2023-05-14T20:42:29.311Z,13.80
2023-05-14T20:44:56.310Z,13.80
2023-05-14T20:47:26.601Z,13.80
2023-05-14T20:49:53.525Z,13.80
2023-05-14T20:52:20.475Z,13.70
2023-05-14T20:54:48.156Z,13.70
2023-05-14T20:57:15.959Z,13.60
2023-05-14T20:59:43.080Z,13.60
2023-05-14T21:02:10.268Z,13.60
2023-05-14T21:04:38.150Z,13.50
2023-05-14T21:07:05.529Z,13.50
2023-05-14T21:09:32.405Z,13.40
2023-05-14T21:11:59.284Z,13.40
2023-05-14T21:14:26.149Z,13.30
2023-05-14T21:16:53.039Z,13.30
2023-05-14T21:19:20.048Z,13.30
2023-05-14T21:21:47.423Z,13.20
2023-05-14T21:24:16.662Z,13.20
2023-05-14T21:26:43.787Z,13.10
2023-05-14T21:29:11.092Z,13.10
2023-05-14T21:31:38.094Z,13.10
2023-05-14T21:34:05.009Z,13.20
2023-05-14T21:36:31.958Z,13.20
2023-05-14T21:38:58.916Z,13.20
2023-05-14T21:41:25.775Z,13.10
2023-05-14T21:43:52.731Z,13.10
2023-05-14T21:46:19.679Z,13.10
2023-05-14T21:48:46.666Z,13.00
2023-05-14T21:51:13.691Z,13.10
2023-05-14T21:53:40.530Z,13.10
2023-05-14T21:56:08.187Z,13.10
2023-05-14T21:58:35.758Z,12.90
2023-05-14T22:01:02.692Z,13.00
2023-05-14T22:03:29.541Z,13.00
2023-05-14T22:05:56.864Z,12.90
2023-05-14T22:08:24.035Z,12.90
2023-05-14T22:10:51.028Z,12.90
2023-05-14T22:13:17.874Z,12.90
2023-05-14T22:15:44.835Z,12.90
2023-05-14T22:18:12.971Z,12.80
2023-05-14T22:20:40.138Z,12.90
2023-05-14T22:23:07.184Z,12.80
2023-05-14T22:25:34.340Z,12.90
2023-05-14T22:28:01.156Z,12.80
2023-05-14T22:30:28.020Z,12.90
2023-05-14T22:32:54.911Z,12.80
2023-05-14T22:35:21.786Z,12.80
2023-05-14T22:37:48.663Z,12.80
2023-05-14T22:40:15.571Z,12.80
2023-05-14T22:42:42.433Z,12.80
2023-05-14T22:45:09.734Z,12.80
2023-05-14T22:47:38.030Z,12.80
2023-05-14T22:50:11.165Z,12.80
2023-05-14T22:52:39.274Z,12.90
2023-05-14T22:55:07.000Z,12.80
2023-05-14T22:57:34.277Z,12.80
2023-05-14T23:00:01.389Z,12.80
2023-05-14T23:02:28.349Z,12.80
2023-05-14T23:04:55.472Z,12.70
2023-05-14T23:07:22.722Z,12.60
2023-05-14T23:09:49.589Z,12.60
2023-05-14T23:12:16.490Z,12.60
2023-05-14T23:14:43.295Z,12.60
2023-05-14T23:17:10.174Z,12.60
2023-05-14T23:19:37.024Z,12.60
2023-05-14T23:22:03.998Z,12.50
2023-05-14T23:24:30.913Z,12.40
2023-05-14T23:26:57.769Z,12.40
2023-05-14T23:29:24.667Z,12.40
2023-05-14T23:31:51.564Z,12.40
2023-05-14T23:34:18.817Z,12.30
2023-05-14T23:36:45.676Z,12.30
2023-05-14T23:39:12.658Z,12.30
2023-05-14T23:41:39.545Z,12.30
2023-05-14T23:44:07.217Z,12.30
2023-05-14T23:46:34.277Z,12.30
2023-05-14T23:49:01.322Z,12.20
2023-05-14T23:51:28.179Z,12.30
2023-05-14T23:53:58.318Z,12.30
2023-05-14T23:56:25.962Z,12.30
2023-05-14T23:58:53.122Z,12.40
